createdAt,value
2022-11-17T00:02:12.154Z,2.10
2022-11-17T00:04:38.974Z,2.13
2022-11-17T00:07:05.712Z,1.58
2022-11-17T00:09:32.493Z,2.08
2022-11-17T00:12:22.326Z,1.67
2022-11-17T00:14:49.541Z,1.85
2022-11-17T00:17:16.295Z,1.92
2022-11-17T00:20:01.680Z,1.35
2022-11-17T00:22:33.847Z,1.92
2022-11-17T00:25:00.897Z,1.43
2022-11-17T00:27:27.666Z,1.48
2022-11-17T00:29:54.508Z,1.67
2022-11-17T00:32:40.011Z,1.63
2022-11-17T00:35:07.228Z,1.42
2022-11-17T00:37:37.220Z,1.40
2022-11-17T00:40:07.461Z,1.60
2022-11-17T00:42:34.155Z,1.60
2022-11-17T00:45:00.960Z,1.35
2022-11-17T00:47:27.756Z,1.58
2022-11-17T00:49:54.526Z,1.40
2022-11-17T00:52:21.242Z,1.23
2022-11-17T00:54:48.233Z,1.30
2022-11-17T00:57:14.994Z,1.50
2022-11-17T00:59:41.704Z,1.48
2022-11-17T01:02:08.415Z,1.58
2022-11-17T01:04:35.128Z,1.40
2022-11-17T01:07:01.926Z,1.83
2022-11-17T01:09:28.656Z,1.52
2022-11-17T01:11:55.374Z,1.42
2022-11-17T01:14:24.821Z,1.30
2022-11-17T01:16:52.674Z,1.08
2022-11-17T01:19:20.632Z,1.75
2022-11-17T01:21:47.784Z,1.50
2022-11-17T01:24:16.362Z,1.30
2022-11-17T01:26:45.321Z,1.40
2022-11-17T01:29:14.400Z,1.50
2022-11-17T01:31:43.558Z,1.50
2022-11-17T01:34:10.567Z,1.48
2022-11-17T01:36:58.253Z,1.30
2022-11-17T01:39:26.961Z,1.45
2022-11-17T01:41:54.580Z,1.25
2022-11-17T01:44:36.484Z,1.08
2022-11-17T01:47:17.190Z,1.40
2022-11-17T01:49:45.232Z,1.63
2022-11-17T01:52:12.751Z,1.15
2022-11-17T01:54:41.538Z,1.40
2022-11-17T01:57:14.875Z,1.60
2022-11-17T01:59:54.705Z,1.50
2022-11-17T02:02:21.555Z,1.50
2022-11-17T02:05:05.881Z,1.38
2022-11-17T02:07:36.559Z,1.17
2022-11-17T02:10:04.462Z,1.50
2022-11-17T02:12:32.932Z,1.48
2022-11-17T02:15:01.217Z,1.70
2022-11-17T02:17:40.580Z,1.38
2022-11-17T02:20:39.950Z,1.92
2022-11-17T02:23:33.412Z,1.40
2022-11-17T02:26:03.178Z,1.92
2022-11-17T02:28:36.251Z,1.45
2022-11-17T02:31:29.794Z,1.50
2022-11-17T02:34:11.409Z,1.60
2022-11-17T02:36:55.841Z,1.35
2022-11-17T02:39:26.102Z,1.45
2022-11-17T02:41:56.166Z,1.50
2022-11-17T02:44:32.338Z,1.92
2022-11-17T02:47:28.769Z,1.90
2022-11-17T02:50:07.805Z,1.50
2022-11-17T02:52:34.861Z,1.55
2022-11-17T02:55:06.589Z,1.77
2022-11-17T02:57:35.671Z,1.52
2022-11-17T03:00:10.211Z,1.73
2022-11-17T03:02:49.467Z,1.42
2022-11-17T03:05:26.516Z,1.33
2022-11-17T03:08:28.740Z,1.63
2022-11-17T03:11:02.885Z,1.92
2022-11-17T03:13:38.489Z,1.85
2022-11-17T03:16:14.011Z,1.60
2022-11-17T03:18:43.721Z,1.83
2022-11-17T03:21:20.134Z,1.27
2022-11-17T03:24:05.480Z,1.60
2022-11-17T03:26:37.636Z,1.42
2022-11-17T03:29:09.214Z,1.40
2022-11-17T03:31:37.587Z,1.75
2022-11-17T03:34:08.724Z,1.40
2022-11-17T03:36:39.613Z,1.30
2022-11-17T03:39:12.833Z,1.70
2022-11-17T03:41:45.080Z,1.08
2022-11-17T03:44:15.961Z,1.40
2022-11-17T03:46:45.448Z,1.30
2022-11-17T03:49:37.726Z,1.60
2022-11-17T03:52:04.919Z,1.20
2022-11-17T03:54:32.714Z,1.50
2022-11-17T03:57:05.161Z,1.50
2022-11-17T03:59:54.572Z,1.50
2022-11-17T04:02:22.713Z,1.30
2022-11-17T04:05:07.720Z,1.65
2022-11-17T04:07:37.392Z,1.33
2022-11-17T04:10:06.679Z,1.10
2022-11-17T04:12:51.808Z,1.23
2022-11-17T04:15:37.245Z,1.00
2022-11-17T04:18:04.575Z,1.10
2022-11-17T04:20:35.995Z,1.00
2022-11-17T04:23:12.097Z,1.17
2022-11-17T04:26:08.875Z,1.08
2022-11-17T04:28:38.622Z,0.90
2022-11-17T04:31:26.994Z,0.95
2022-11-17T04:33:56.727Z,1.20
2022-11-17T04:36:31.792Z,0.90
2022-11-17T04:38:59.952Z,1.10
2022-11-17T04:41:47.339Z,1.02
2022-11-17T04:44:17.559Z,1.27
2022-11-17T04:46:45.940Z,1.20
2022-11-17T04:49:14.624Z,1.30
2022-11-17T04:51:41.632Z,1.30
2022-11-17T04:54:10.568Z,1.23
2022-11-17T04:56:37.878Z,1.88
2022-11-17T04:59:06.123Z,1.38
2022-11-17T05:01:32.933Z,1.27
2022-11-17T05:04:10.320Z,1.13
2022-11-17T05:06:43.159Z,1.10
2022-11-17T05:09:12.870Z,2.03
2022-11-17T05:11:58.649Z,1.40
2022-11-17T05:14:26.591Z,1.23
2022-11-17T05:17:10.883Z,1.30
2022-11-17T05:19:48.584Z,1.27
2022-11-17T05:22:36.634Z,1.50
2022-11-17T05:25:04.307Z,1.15
2022-11-17T05:27:31.143Z,1.60
2022-11-17T05:29:57.847Z,1.70
2022-11-17T05:32:24.626Z,1.20
2022-11-17T05:34:51.368Z,1.55
2022-11-17T05:37:18.175Z,1.60
2022-11-17T05:39:44.858Z,1.67
2022-11-17T05:42:11.578Z,1.25
2022-11-17T05:44:39.985Z,1.35
2022-11-17T05:47:06.958Z,1.50
2022-11-17T05:49:33.674Z,1.58
2022-11-17T05:52:00.548Z,1.45
2022-11-17T05:54:27.247Z,1.60
2022-11-17T05:57:03.046Z,1.60
2022-11-17T05:59:40.383Z,1.73
2022-11-17T06:02:31.364Z,1.50
2022-11-17T06:04:58.152Z,1.67
2022-11-17T06:07:24.966Z,2.53
2022-11-17T06:09:52.437Z,1.38
2022-11-17T06:12:19.185Z,1.15
2022-11-17T06:14:45.971Z,1.70
2022-11-17T06:17:35.814Z,1.08
2022-11-17T06:20:21.050Z,1.50
2022-11-17T06:22:49.025Z,2.53
2022-11-17T06:25:17.303Z,1.60
2022-11-17T06:27:44.563Z,1.73
2022-11-17T06:30:11.686Z,1.55
2022-11-17T06:32:40.264Z,1.65
2022-11-17T06:35:08.765Z,1.30
2022-11-17T06:37:35.646Z,1.27
2022-11-17T06:40:02.585Z,1.75
2022-11-17T06:43:01.862Z,1.65
2022-11-17T06:45:28.558Z,1.10
2022-11-17T06:47:55.305Z,1.38
2022-11-17T06:50:22.198Z,1.10
2022-11-17T06:52:48.951Z,1.40
2022-11-17T06:55:15.810Z,1.23
2022-11-17T06:57:42.628Z,0.77
2022-11-17T07:00:10.377Z,0.70
2022-11-17T07:02:37.681Z,0.93
2022-11-17T07:05:05.076Z,0.65
2022-11-17T07:07:31.945Z,1.10
2022-11-17T07:09:58.749Z,1.10
2022-11-17T07:12:25.507Z,1.10
2022-11-17T07:14:52.285Z,0.70
2022-11-17T07:17:19.000Z,0.52
2022-11-17T07:19:45.879Z,0.80
2022-11-17T07:22:12.580Z,0.82
2022-11-17T07:24:39.410Z,0.88
2022-11-17T07:27:06.537Z,1.48
2022-11-17T07:29:33.370Z,0.90
2022-11-17T07:32:00.146Z,1.00
2022-11-17T07:34:26.940Z,1.13
2022-11-17T07:36:53.629Z,0.80
2022-11-17T07:39:21.969Z,1.00
2022-11-17T07:41:48.809Z,0.88
2022-11-17T07:44:15.488Z,0.80
2022-11-17T07:46:42.194Z,0.93
2022-11-17T07:49:08.924Z,1.00
2022-11-17T07:51:35.694Z,0.70
2022-11-17T07:54:02.471Z,1.10
2022-11-17T07:56:29.204Z,0.90
2022-11-17T07:58:55.927Z,1.00
2022-11-17T08:01:22.741Z,1.23
2022-11-17T08:03:49.745Z,1.10
2022-11-17T08:06:17.037Z,1.08
2022-11-17T08:08:43.815Z,0.88
2022-11-17T08:11:12.278Z,0.82
2022-11-17T08:13:40.579Z,1.10
2022-11-17T08:16:09.761Z,1.02
2022-11-17T08:18:37.500Z,1.00
2022-11-17T08:21:10.168Z,0.77
2022-11-17T08:23:37.875Z,1.05
2022-11-17T08:26:06.683Z,1.17
2022-11-17T08:28:36.603Z,1.73
2022-11-17T08:31:08.081Z,1.00
2022-11-17T08:33:34.888Z,1.55
2022-11-17T08:36:03.249Z,1.27
2022-11-17T08:38:30.861Z,1.35
2022-11-17T08:40:59.460Z,0.70
2022-11-17T08:43:26.326Z,1.48
2022-11-17T08:45:53.149Z,1.15
2022-11-17T08:48:20.375Z,1.00
2022-11-17T08:50:47.529Z,1.13
2022-11-17T08:53:16.203Z,1.13
2022-11-17T08:55:43.365Z,0.70
2022-11-17T08:58:11.707Z,1.13
2022-11-17T09:00:39.543Z,0.93
2022-11-17T09:03:10.814Z,0.90
2022-11-17T09:05:40.352Z,1.10
2022-11-17T09:08:38.057Z,1.25
2022-11-17T09:10:55.100Z,1.00
2022-11-17T09:13:21.922Z,1.15
2022-11-17T09:15:48.698Z,0.70
2022-11-17T09:18:15.527Z,0.90
2022-11-17T09:20:45.844Z,1.08
2022-11-17T09:23:13.125Z,0.75
2022-11-17T09:25:39.971Z,1.05
2022-11-17T09:28:06.813Z,1.00
2022-11-17T09:30:33.578Z,0.70
2022-11-17T09:33:00.414Z,0.88
2022-11-17T09:35:27.136Z,0.82
2022-11-17T09:37:59.293Z,0.90
2022-11-17T09:40:26.165Z,1.10
2022-11-17T09:42:53.198Z,0.80
2022-11-17T09:45:31.489Z,0.90
2022-11-17T09:48:40.100Z,0.80
2022-11-17T09:51:04.406Z,0.77
2022-11-17T09:53:43.281Z,1.00
2022-11-17T09:56:12.285Z,1.17
2022-11-17T09:58:44.460Z,0.90
2022-11-17T10:01:16.629Z,1.00
2022-11-17T10:03:46.271Z,0.73
2022-11-17T10:06:21.183Z,1.05
2022-11-17T10:09:29.473Z,1.35
2022-11-17T10:12:07.592Z,0.90
2022-11-17T10:14:36.790Z,1.00
2022-11-17T10:17:03.508Z,0.95
2022-11-17T10:19:32.053Z,1.02
2022-11-17T10:22:21.853Z,1.00
2022-11-17T10:24:55.541Z,0.80
2022-11-17T10:27:28.323Z,0.82
2022-11-17T10:30:04.296Z,0.90
2022-11-17T10:32:35.401Z,1.08
2022-11-17T10:35:33.740Z,0.98
2022-11-17T10:38:08.161Z,1.30
2022-11-17T10:40:40.818Z,0.88
2022-11-17T10:43:13.506Z,0.65
2022-11-17T10:45:49.337Z,0.80
2022-11-17T10:48:35.557Z,0.63
2022-11-17T10:51:09.232Z,0.60
2022-11-17T10:53:46.139Z,0.85
2022-11-17T10:56:19.939Z,0.60
2022-11-17T10:59:21.728Z,0.75
2022-11-17T11:01:51.501Z,0.93
2022-11-17T11:04:28.596Z,1.05
2022-11-17T11:07:07.549Z,0.73
2022-11-17T11:09:38.559Z,1.10
2022-11-17T11:12:12.198Z,1.10
2022-11-17T11:14:58.305Z,0.73
2022-11-17T11:17:28.441Z,0.70
2022-11-17T11:19:55.837Z,0.60
2022-11-17T11:22:38.079Z,0.60
2022-11-17T11:25:23.415Z,0.57
2022-11-17T11:28:02.916Z,0.80
2022-11-17T11:30:37.407Z,0.85
2022-11-17T11:33:21.983Z,0.80
2022-11-17T11:36:07.077Z,0.55
2022-11-17T11:38:54.111Z,0.80
2022-11-17T11:41:38.987Z,0.70
2022-11-17T11:44:05.681Z,0.50
2022-11-17T11:46:55.343Z,0.70
2022-11-17T11:49:43.679Z,0.70
2022-11-17T11:52:16.142Z,0.60
2022-11-17T11:55:15.097Z,0.80
2022-11-17T11:57:52.142Z,1.10
2022-11-17T12:00:19.321Z,0.90
2022-11-17T12:03:11.888Z,0.70
2022-11-17T12:05:41.773Z,1.40
2022-11-17T12:08:11.501Z,0.85
2022-11-17T12:11:29.479Z,0.80
2022-11-17T12:13:57.195Z,0.82
2022-11-17T12:16:37.070Z,0.70
2022-11-17T12:19:42.483Z,0.80
2022-11-17T12:22:10.287Z,0.73
2022-11-17T12:24:41.785Z,0.63
2022-11-17T12:27:36.197Z,0.90
2022-11-17T12:30:05.208Z,0.70
2022-11-17T12:32:44.234Z,1.00
2022-11-17T12:35:28.045Z,0.90
2022-11-17T12:38:17.330Z,1.00
2022-11-17T12:40:54.294Z,0.95
2022-11-17T12:43:23.503Z,1.75
2022-11-17T12:45:59.260Z,1.70
2022-11-17T12:48:36.239Z,1.20
2022-11-17T12:51:21.905Z,0.90
2022-11-17T12:53:59.912Z,0.90
2022-11-17T12:57:03.773Z,0.88
2022-11-17T13:00:07.627Z,1.13
2022-11-17T13:03:00.944Z,1.15
2022-11-17T13:05:30.362Z,1.17
2022-11-17T13:08:16.353Z,1.00
2022-11-17T13:10:43.398Z,1.33
2022-11-17T13:13:24.550Z,0.60
2022-11-17T13:15:53.926Z,1.05
2022-11-17T13:18:41.596Z,1.27
2022-11-17T13:21:29.530Z,0.85
2022-11-17T13:23:58.002Z,1.00
2022-11-17T13:26:27.419Z,0.93
2022-11-17T13:29:06.383Z,0.80
2022-11-17T13:31:34.472Z,1.08
2022-11-17T13:34:10.763Z,0.90
2022-11-17T13:36:56.614Z,0.90
2022-11-17T13:39:27.518Z,0.90
2022-11-17T13:41:56.538Z,0.75
2022-11-17T13:44:25.815Z,0.98
2022-11-17T13:46:52.939Z,0.75
2022-11-17T13:49:39.015Z,0.90
2022-11-17T13:52:31.088Z,0.90
2022-11-17T13:55:08.901Z,1.48
2022-11-17T13:57:35.735Z,1.00
2022-11-17T14:00:03.547Z,1.42
2022-11-17T14:02:30.757Z,1.05
2022-11-17T14:05:17.523Z,1.73
2022-11-17T14:07:46.217Z,1.30
2022-11-17T14:10:28.073Z,1.10
2022-11-17T14:13:01.044Z,1.15
2022-11-17T14:18:05.400Z,0.85
2022-11-17T14:20:35.010Z,0.88
2022-11-17T14:23:05.420Z,0.80
2022-11-17T14:25:38.489Z,1.10
2022-11-17T14:30:32.551Z,1.15
2022-11-17T14:33:06.367Z,0.75
2022-11-17T14:35:36.409Z,1.05
2022-11-17T14:38:41.996Z,1.15
2022-11-17T14:41:09.124Z,1.05
2022-11-17T14:43:36.022Z,0.98
2022-11-17T14:46:04.132Z,0.73
2022-11-17T14:48:31.204Z,1.17
2022-11-17T14:50:59.535Z,1.02
2022-11-17T14:53:27.072Z,1.38
2022-11-17T14:55:54.138Z,1.27
2022-11-17T14:58:21.451Z,1.42
2022-11-17T15:00:48.513Z,1.15
2022-11-17T15:03:15.618Z,1.17
2022-11-17T15:05:46.272Z,1.50
2022-11-17T15:11:13.200Z,1.10
2022-11-17T15:13:40.028Z,1.23
2022-11-17T15:16:07.256Z,0.93
2022-11-17T15:18:34.411Z,1.02
2022-11-17T15:21:09.774Z,0.80
2022-11-17T15:23:38.939Z,0.90
2022-11-17T15:26:08.422Z,1.20
2022-11-17T15:28:35.551Z,0.90
2022-11-17T15:31:16.909Z,1.30
2022-11-17T15:33:46.040Z,1.25
2022-11-17T15:36:16.343Z,1.73
2022-11-17T15:38:43.395Z,1.30
2022-11-17T15:41:12.290Z,1.83
2022-11-17T15:43:40.907Z,1.35
2022-11-17T15:46:10.560Z,1.50
2022-11-17T15:48:40.130Z,1.52
2022-11-17T15:51:11.145Z,1.30
2022-11-17T15:53:38.869Z,1.33
2022-11-17T15:56:17.537Z,1.27
2022-11-17T15:58:46.297Z,1.30
2022-11-17T16:01:27.002Z,1.17
2022-11-17T16:03:59.664Z,1.60
2022-11-17T16:06:27.042Z,1.50
2022-11-17T16:08:54.315Z,1.00
2022-11-17T16:11:27.238Z,1.00
2022-11-17T16:16:27.280Z,1.55
2022-11-17T16:18:54.654Z,1.63
2022-11-17T16:21:21.640Z,1.10
2022-11-17T16:23:50.761Z,1.30
2022-11-17T16:26:19.611Z,1.33
2022-11-17T16:28:48.366Z,1.45
2022-11-17T16:31:26.937Z,1.25
2022-11-17T16:33:59.399Z,1.55
2022-11-17T16:36:35.573Z,1.17
2022-11-17T16:39:05.536Z,0.80
2022-11-17T16:41:38.194Z,0.82
2022-11-17T16:44:12.223Z,1.27
2022-11-17T16:46:42.898Z,1.52
2022-11-17T16:49:12.409Z,2.08
2022-11-17T16:51:39.381Z,1.30
2022-11-17T16:54:08.450Z,1.50
2022-11-17T16:56:35.266Z,1.65
2022-11-17T16:59:02.263Z,1.33
2022-11-17T17:01:32.550Z,1.73
2022-11-17T17:04:02.049Z,1.15
2022-11-17T17:06:31.169Z,1.30
2022-11-17T17:09:01.325Z,1.48
2022-11-17T17:11:31.895Z,1.02
2022-11-17T17:14:00.593Z,1.58
2022-11-17T17:16:34.036Z,1.60
2022-11-17T17:19:11.734Z,1.50
2022-11-17T17:21:40.521Z,1.80
2022-11-17T17:24:09.671Z,3.38
2022-11-17T17:26:40.397Z,1.95
2022-11-17T17:29:15.814Z,1.98
2022-11-17T17:31:43.714Z,1.80
2022-11-17T17:34:13.112Z,3.83
2022-11-17T17:36:40.463Z,1.77
2022-11-17T17:39:08.819Z,1.35
2022-11-17T17:41:39.724Z,1.55
2022-11-17T17:44:16.045Z,1.60
2022-11-17T17:46:43.675Z,1.85
2022-11-17T17:49:14.304Z,1.70
2022-11-17T17:51:44.717Z,1.30
2022-11-17T17:54:24.719Z,1.45
2022-11-17T17:56:52.066Z,1.35
2022-11-17T17:59:20.692Z,1.50
2022-11-17T18:01:48.473Z,1.73
2022-11-17T18:04:17.421Z,1.70
2022-11-17T18:06:48.911Z,1.17
2022-11-17T18:09:19.629Z,1.50
2022-11-17T18:11:51.557Z,2.28
2022-11-17T18:14:29.479Z,1.48
2022-11-17T18:16:59.085Z,1.33
2022-11-17T18:19:31.558Z,1.55
2022-11-17T18:22:10.376Z,1.65
2022-11-17T18:24:37.850Z,1.30
2022-11-17T18:27:04.721Z,1.83
2022-11-17T18:29:34.340Z,0.95
2022-11-17T18:32:02.496Z,1.63
2022-11-17T18:34:29.258Z,1.20
2022-11-17T18:36:56.332Z,1.20
2022-11-17T18:39:23.630Z,1.17
2022-11-17T18:41:50.421Z,0.95
2022-11-17T18:44:19.355Z,1.00
2022-11-17T18:46:46.794Z,0.90
2022-11-17T18:49:14.326Z,0.90
2022-11-17T18:51:41.369Z,0.82
2022-11-17T18:54:11.574Z,1.10
2022-11-17T18:56:38.962Z,1.67
2022-11-17T18:59:13.456Z,1.10
2022-11-17T19:01:41.941Z,2.65
2022-11-17T19:04:10.014Z,1.20
2022-11-17T19:06:37.233Z,1.38
2022-11-17T19:09:04.148Z,1.13
2022-11-17T19:11:32.765Z,1.77
2022-11-17T19:14:07.263Z,1.45
2022-11-17T19:16:41.057Z,1.02
2022-11-17T19:19:10.825Z,1.40
2022-11-17T19:21:37.534Z,1.58
2022-11-17T19:24:04.803Z,1.60
2022-11-17T19:26:33.915Z,1.30
2022-11-17T19:29:06.420Z,1.58
2022-11-17T19:31:36.317Z,1.45
2022-11-17T19:34:03.462Z,1.30
2022-11-17T19:36:33.114Z,1.73
2022-11-17T19:39:01.721Z,1.73
2022-11-17T19:41:34.221Z,1.77
2022-11-17T19:44:06.270Z,2.17
2022-11-17T19:46:33.855Z,1.50
2022-11-17T19:49:00.673Z,1.65
2022-11-17T19:51:32.491Z,1.95
2022-11-17T19:54:02.108Z,1.90
2022-11-17T19:56:29.154Z,1.88
2022-11-17T19:58:55.932Z,1.77
2022-11-17T20:01:27.708Z,2.20
2022-11-17T20:03:56.379Z,2.00
2022-11-17T20:06:27.309Z,1.70
2022-11-17T20:08:55.399Z,1.70
2022-11-17T20:11:24.261Z,1.80
2022-11-17T20:13:51.088Z,2.20
2022-11-17T20:16:26.598Z,1.80
2022-11-17T20:18:58.572Z,1.92
2022-11-17T20:21:26.707Z,2.70
2022-11-17T20:23:54.472Z,2.13
2022-11-17T20:26:26.861Z,3.20
2022-11-17T20:28:54.305Z,4.05
2022-11-17T20:31:26.410Z,3.22
2022-11-17T20:33:57.493Z,3.07
2022-11-17T20:36:24.403Z,3.03
2022-11-17T20:38:53.170Z,3.15
2022-11-17T20:41:21.085Z,3.40
2022-11-17T20:43:49.183Z,2.92
2022-11-17T20:46:16.256Z,3.03
2022-11-17T20:48:43.423Z,2.80
2022-11-17T20:51:13.025Z,2.60
2022-11-17T20:53:40.524Z,2.80
2022-11-17T20:56:09.434Z,2.60
2022-11-17T20:58:37.230Z,2.85
2022-11-17T21:01:12.408Z,2.40
2022-11-17T21:03:39.185Z,2.60
2022-11-17T21:06:06.216Z,2.08
2022-11-17T21:08:37.973Z,2.58
2022-11-17T21:11:07.698Z,2.13
2022-11-17T21:13:36.577Z,3.03
2022-11-17T21:16:15.768Z,2.53
2022-11-17T21:18:48.181Z,2.47
2022-11-17T21:21:15.608Z,2.83
2022-11-17T21:23:43.885Z,2.55
2022-11-17T21:26:13.985Z,2.47
2022-11-17T21:28:41.541Z,2.83
2022-11-17T21:31:20.039Z,2.70
2022-11-17T21:33:47.189Z,3.22
2022-11-17T21:36:16.236Z,2.47
2022-11-17T21:38:44.485Z,2.60
2022-11-17T21:41:19.960Z,2.58
2022-11-17T21:43:48.481Z,3.05
2022-11-17T21:46:18.648Z,3.20
2022-11-17T21:48:46.207Z,3.20
2022-11-17T21:51:22.448Z,3.58
2022-11-17T21:53:53.987Z,3.45
2022-11-17T21:56:21.676Z,3.10
2022-11-17T21:58:48.413Z,3.85
2022-11-17T22:01:16.157Z,3.05
2022-11-17T22:03:43.583Z,2.90
2022-11-17T22:06:16.286Z,3.33
2022-11-17T22:08:44.019Z,3.20
2022-11-17T22:11:13.287Z,4.00
2022-11-17T22:13:40.514Z,3.58
2022-11-17T22:16:13.353Z,2.70
2022-11-17T22:18:41.355Z,3.08
2022-11-17T22:21:09.110Z,3.85
2022-11-17T22:23:36.053Z,3.05
2022-11-17T22:26:04.578Z,3.30
2022-11-17T22:28:31.465Z,2.95
2022-11-17T22:30:58.457Z,2.83
2022-11-17T22:33:25.397Z,2.60
2022-11-17T22:35:52.162Z,2.58
2022-11-17T22:38:19.001Z,2.20
2022-11-17T22:40:45.725Z,2.40
2022-11-17T22:43:15.552Z,2.55
2022-11-17T22:45:42.711Z,2.45
2022-11-17T22:48:09.588Z,2.15
2022-11-17T22:50:36.769Z,2.53
2022-11-17T22:53:03.848Z,2.53
2022-11-17T22:55:33.022Z,2.47
2022-11-17T22:57:59.860Z,2.30
2022-11-17T23:00:27.150Z,2.55
2022-11-17T23:02:53.880Z,2.42
2022-11-17T23:05:20.704Z,2.63
2022-11-17T23:07:47.597Z,2.20
2022-11-17T23:10:14.661Z,2.33
2022-11-17T23:12:41.536Z,2.72
2022-11-17T23:15:08.655Z,2.13
2022-11-17T23:17:35.400Z,2.70
2022-11-17T23:20:02.284Z,3.13
2022-11-17T23:22:29.057Z,2.53
2022-11-17T23:24:55.794Z,2.90
2022-11-17T23:27:22.585Z,2.60
2022-11-17T23:29:49.855Z,2.30
2022-11-17T23:32:16.642Z,2.80
2022-11-17T23:34:43.407Z,2.60
2022-11-17T23:37:10.739Z,2.60
2022-11-17T23:39:37.634Z,3.40
2022-11-17T23:42:05.162Z,3.08
2022-11-17T23:44:31.951Z,2.55
2022-11-17T23:46:58.661Z,2.67
2022-11-17T23:49:25.430Z,2.80
2022-11-17T23:51:52.174Z,3.08
2022-11-17T23:54:18.903Z,3.30
2022-11-17T23:56:45.748Z,2.80
2022-11-17T23:59:12.547Z,2.22
